Time;durP1;ratioP1;P1;durP2;ratioP2;P2;SDS_P1;SDS_P2;PMS_P1;PMS_P2;Temp;Humidity;BMP_temperature;BMP_pressure;BME280_temperature;BME280_humidity;BME280_pressure;Samples;Min_cycle;Max_cycle;Signal;HPM_P1;HPM_P2
2022/08/13 00:01:26;;;;;;;;;27.00;26.00;;;;;26.23;51.09;98889.31;6238526;27;97616;-54
2022/08/13 00:04:40;;;;;;;;;29.00;27.75;;;;;26.23;51.37;98885.72;6224464;27;97629;-57
2022/08/13 00:07:46;;;;;;;;;30.60;29.00;;;;;26.22;51.56;98886.84;6261034;27;96872;-60
2022/08/13 00:10:53;;;;;;;;;25.50;24.00;;;;;26.23;51.28;98880.19;6260113;27;97392;-59
2022/08/13 00:14:00;;;;;;;;;29.33;26.33;;;;;26.20;51.46;98880.78;6246585;27;97084;-58
2022/08/13 00:17:07;;;;;;;;;27.40;25.00;;;;;26.17;51.59;98882.28;6263514;27;97197;-56
2022/08/13 00:20:13;;;;;;;;;27.50;27.00;;;;;26.14;51.66;98884.88;6245102;27;96427;-59
2022/08/13 00:23:19;;;;;;;;;27.80;25.60;;;;;26.14;51.38;98882.94;6224402;27;97842;-59
2022/08/13 00:26:25;;;;;;;;;29.00;28.00;;;;;26.15;51.42;98879.00;6254233;27;96389;-59
2022/08/13 00:29:38;;;;;;;;;29.75;26.50;;;;;26.19;51.51;98873.66;6265800;27;97443;-57
2022/08/13 00:32:44;;;;;;;;;28.00;27.00;;;;;26.06;51.51;98850.56;6257863;27;97011;-58
2022/08/13 00:35:53;;;;;;;;;28.00;25.50;;;;;26.20;51.28;98867.78;6241472;28;96964;-57
2022/08/13 00:38:56;;;;;;;;;28.25;25.25;;;;;26.19;51.35;98860.63;6265479;27;97429;-57
2022/08/13 00:41:59;;;;;;;;;25.50;22.50;;;;;26.17;51.73;98860.16;6263877;27;96448;-59
2022/08/13 00:45:04;;;;;;;;;26.50;24.50;;;;;26.16;51.64;98854.94;6230257;28;97918;-58
2022/08/13 00:51:49;;;;;;;;;33.00;30.00;;;;;26.09;51.77;98849.94;6240571;27;97247;-56
2022/08/13 00:55:02;;;;;;;;;34.25;30.00;;;;;26.08;51.86;98861.31;6251187;27;97376;-60
2022/08/13 00:58:05;;;;;;;;;30.25;27.50;;;;;26.07;52.02;98849.44;6260180;27;97524;-61
2022/08/13 01:01:25;;;;;;;;;29.00;26.00;;;;;26.06;51.92;98847.78;6229945;28;96810;-59
2022/08/13 01:04:38;;;;;;;;;32.00;29.00;;;;;26.08;52.04;98830.91;6215424;28;96539;-55
2022/08/13 01:07:46;;;;;;;;;35.60;32.00;;;;;26.06;52.14;98824.88;6215514;28;96922;-58
2022/08/13 01:11:07;;;;;;;;;32.60;29.20;;;;;26.04;52.29;98825.22;6226159;27;97499;-56
2022/08/13 01:14:19;;;;;;;;;32.00;30.00;;;;;26.03;52.53;98831.88;6243637;28;96335;-55
2022/08/13 01:17:27;;;;;;;;;29.00;27.00;;;;;26.03;52.45;98820.00;6240915;28;97568;-59
2022/08/13 01:21:00;;;;;;;;;33.60;30.00;;;;;26.03;52.36;98814.50;6241200;28;96447;-54
2022/08/13 01:24:10;;;;;;;;;30.00;26.00;;;;;26.05;52.45;98806.66;6242276;27;97081;-60
2022/08/13 01:27:21;;;;;;;;;21.40;18.20;;;;;26.04;52.23;98811.41;6242707;27;97558;-58
2022/08/13 01:30:25;;;;;;;;;25.00;23.40;;;;;26.04;52.25;98810.59;6255870;27;97437;-58
2022/08/13 01:33:35;;;;;;;;;29.00;26.00;;;;;26.02;52.57;98808.16;6216383;28;97592;-59
2022/08/13 01:36:54;;;;;;;;;30.00;28.00;;;;;26.01;52.46;98805.69;6214599;28;97391;-60
2022/08/13 01:40:01;;;;;;;;;28.60;27.00;;;;;25.98;52.63;98806.38;6214971;28;97533;-60
2022/08/13 01:43:05;;;;;;;;;29.75;26.75;;;;;25.93;52.73;98815.63;6246569;27;96575;-60
2022/08/13 01:46:24;;;;;;;;;31.60;30.00;;;;;25.88;53.09;98819.34;6224698;27;97046;-58
2022/08/13 01:52:51;;;;;;;;;36.60;32.00;;;;;25.84;53.05;98812.88;6241013;27;96707;-61
2022/08/13 01:55:58;;;;;;;;;23.50;21.75;;;;;25.84;53.24;98810.09;6240084;28;96972;-57
2022/08/13 01:59:21;;;;;;;;;28.33;27.00;;;;;25.85;53.24;98811.69;6239289;28;98343;-57
2022/08/13 02:02:27;;;;;;;;;31.50;30.00;;;;;25.86;53.48;98810.56;6229121;27;96809;-58
2022/08/13 02:05:47;;;;;;;;;32.00;28.50;;;;;25.86;53.44;98805.03;6215406;28;96529;-56
2022/08/13 02:09:11;;;;;;;;;28.33;27.33;;;;;25.86;53.68;98804.22;6215116;28;96725;-59
2022/08/13 02:12:37;;;;;;;;;33.40;30.00;;;;;25.84;53.82;98801.81;6234337;28;97223;-60
2022/08/13 02:15:41;;;;;;;;;30.40;27.60;;;;;25.85;53.78;98805.41;6239720;27;96917;-59
2022/08/13 02:18:45;;;;;;;;;28.00;26.60;;;;;25.83;53.91;98794.66;6249013;27;97398;-56
2022/08/13 02:21:52;;;;;;;;;30.40;29.00;;;;;25.83;54.05;98793.84;6249066;27;96614;-59
2022/08/13 02:25:01;;;;;;;;;29.00;28.00;;;;;25.83;54.03;98805.72;6240310;27;97005;-56
2022/08/13 02:28:06;;;;;;;;;28.80;27.40;;;;;25.82;54.01;98801.31;6239149;27;96505;-56
2022/08/13 02:31:24;;;;;;;;;28.80;25.80;;;;;25.83;53.95;98802.13;6238432;28;97098;-59
2022/08/13 02:34:50;;;;;;;;;28.00;25.60;;;;;25.84;54.04;98806.53;6247288;27;97453;-59
2022/08/13 02:37:54;;;;;;;;;33.40;30.00;;;;;25.85;54.07;98808.16;6258024;27;97265;-55
2022/08/13 02:44:25;;;;;;;;;32.00;29.00;;;;;25.87;54.00;98808.63;6237331;28;96991;-60
2022/08/13 02:47:37;;;;;;;;;34.00;30.00;;;;;25.86;53.72;98799.53;6238144;27;96589;-56
2022/08/13 02:50:48;;;;;;;;;34.00;32.00;;;;;25.88;53.76;98802.78;6218613;28;97527;-59
2022/08/13 02:53:55;;;;;;;;;33.00;30.00;;;;;25.90;53.69;98807.19;6223219;28;97119;-60
2022/08/13 02:57:01;;;;;;;;;28.80;26.60;;;;;25.89;53.62;98798.06;6261658;27;96419;-57
2022/08/13 03:00:09;;;;;;;;;28.75;26.25;;;;;25.92;53.77;98793.84;6242378;27;97164;-55
2022/08/13 03:03:13;;;;;;;;;35.00;31.00;;;;;25.88;53.55;98790.91;6214331;27;97031;-55
2022/08/13 03:06:19;;;;;;;;;43.50;36.00;;;;;25.92;53.89;98797.41;6226447;28;97040;-58
2022/08/13 03:09:23;;;;;;;;;29.00;26.00;;;;;25.79;53.95;98765.25;6239316;27;96672;-57
2022/08/13 03:12:29;;;;;;;;;26.40;24.00;;;;;25.94;54.35;98777.75;6229944;27;96992;-59
2022/08/13 03:15:36;;;;;;;;;30.50;27.25;;;;;25.94;54.15;98773.06;6230420;28;97399;-58
2022/08/13 03:19:00;;;;;;;;;28.00;28.00;;;;;25.97;54.07;98771.59;6237112;28;96608;-57
2022/08/13 03:22:05;;;;;;;;;31.40;29.00;;;;;25.94;53.94;98759.25;6230979;27;96929;-57
2022/08/13 03:25:08;;;;;;;;;27.60;26.60;;;;;25.97;54.17;98771.59;6236207;27;97203;-55
2022/08/13 03:28:12;;;;;;;;;33.00;30.00;;;;;25.99;54.49;98766.56;6233852;27;97495;-59
2022/08/13 03:31:20;;;;;;;;;33.20;30.00;;;;;25.99;53.86;98764.59;6263199;27;96686;-55
2022/08/13 03:34:24;;;;;;;;;29.60;28.60;;;;;26.01;53.92;98755.97;6212523;28;97069;-56
2022/08/13 03:37:35;;;;;;;;;33.00;29.00;;;;;26.02;54.02;98757.59;6213400;28;97407;-57
2022/08/13 03:44:02;;;;;;;;;30.00;28.00;;;;;25.99;54.05;98766.56;6229794;28;96627;-54
2022/08/13 03:47:14;;;;;;;;;31.00;27.40;;;;;25.96;54.20;98772.72;6238417;28;97472;-55
2022/08/13 03:50:35;;;;;;;;;34.40;30.20;;;;;25.93;54.25;98779.72;6237574;27;96502;-57
2022/08/13 03:53:40;;;;;;;;;31.25;29.25;;;;;25.92;54.44;98780.03;6229488;27;97497;-54
2022/08/13 03:56:46;;;;;;;;;31.00;28.40;;;;;25.90;54.52;98777.63;6243569;27;97449;-55
2022/08/13 04:00:05;;;;;;;;;35.00;30.00;;;;;25.87;54.55;98781.00;6254239;27;97150;-56
2022/08/13 04:03:20;;;;;;;;;33.75;30.50;;;;;25.86;54.48;98787.66;6234990;28;97262;-59
2022/08/13 04:06:24;;;;;;;;;40.60;33.00;;;;;25.85;54.92;98788.81;6235712;28;96993;-59
2022/08/13 04:09:29;;;;;;;;;38.50;32.00;;;;;25.82;54.82;98781.97;6240480;27;97559;-54
2022/08/13 04:12:34;;;;;;;;;37.60;32.00;;;;;25.82;55.12;98787.50;6248483;27;97089;-55
2022/08/13 04:15:42;;;;;;;;;34.25;29.50;;;;;25.82;54.98;98779.22;6259732;27;96978;-59
2022/08/13 04:18:48;;;;;;;;;35.40;30.00;;;;;25.84;54.93;98781.66;6235215;28;97561;-53
2022/08/13 04:21:52;;;;;;;;;33.20;28.20;;;;;25.85;54.92;98786.06;6237201;28;96816;-57
2022/08/13 04:24:55;;;;;;;;;44.20;36.60;;;;;25.86;55.38;98782.94;6226765;28;97455;-57
2022/08/13 04:27:59;;;;;;;;;43.50;35.50;;;;;25.85;55.02;98778.56;6217981;27;97528;-57
2022/08/13 04:31:06;;;;;;;;;32.00;29.00;;;;;25.85;55.06;98778.56;6232840;27;97920;-55
2022/08/13 04:34:14;;;;;;;;;32.20;29.40;;;;;25.85;55.04;98780.53;6250880;27;96967;-57
2022/08/13 04:37:38;;;;;;;;;36.00;32.00;;;;;25.87;55.33;98772.72;6262566;27;96726;-56
2022/08/13 04:40:57;;;;;;;;;32.00;29.50;;;;;25.73;55.15;98749.97;6246956;27;96734;-57
2022/08/13 04:44:06;;;;;;;;;34.40;30.00;;;;;25.89;55.17;98784.28;6231189;28;97432;-56
2022/08/13 04:47:10;;;;;;;;;35.00;31.75;;;;;25.94;55.24;98775.00;6231183;27;97330;-57
2022/08/13 04:50:17;;;;;;;;;37.00;31.00;;;;;25.96;55.29;98775.47;6261581;27;97535;-56
2022/08/13 04:53:24;;;;;;;;;32.00;29.80;;;;;25.96;54.99;98770.75;6212536;28;96601;-57
2022/08/13 04:56:27;;;;;;;;;33.40;29.00;;;;;25.78;54.92;98736.00;6231034;28;97061;-58
2022/08/13 04:59:31;;;;;;;;;32.50;30.00;;;;;26.04;54.84;98780.22;6232657;28;97546;-56
2022/08/13 05:02:38;;;;;;;;;39.20;30.80;;;;;26.07;54.79;98783.13;6235517;27;97779;-56
2022/08/13 05:05:48;;;;;;;;;38.40;31.40;;;;;26.10;54.75;98778.88;6249453;27;97738;-58
2022/08/13 05:08:52;;;;;;;;;40.00;33.00;;;;;26.12;54.61;98780.19;6240195;27;96814;-55
2022/08/13 05:11:58;;;;;;;;;35.25;31.00;;;;;26.14;54.63;98779.88;6238032;27;97551;-57
2022/08/13 05:15:08;;;;;;;;;35.00;31.00;;;;;26.13;54.72;98775.47;6229774;28;97042;-58
2022/08/13 05:18:33;;;;;;;;;36.75;32.25;;;;;26.19;54.57;98779.72;6233528;27;97440;-56
2022/08/13 05:21:38;;;;;;;;;33.50;31.50;;;;;26.22;54.74;98781.84;6227629;28;98362;-57
2022/08/13 05:25:01;;;;;;;;;40.80;33.00;;;;;26.26;54.52;98782.81;6242244;27;96658;-56
2022/08/13 05:28:25;;;;;;;;;35.80;31.00;;;;;26.29;54.29;98773.88;6224745;27;97088;-58
2022/08/13 05:31:35;;;;;;;;;31.60;29.00;;;;;26.28;54.26;98773.06;6225735;28;97680;-58
2022/08/13 05:34:59;;;;;;;;;27.80;25.80;;;;;26.36;53.93;98770.59;6240292;27;96670;-59
2022/08/13 05:38:05;;;;;;;;;29.40;27.20;;;;;26.40;53.66;98763.25;6239073;28;97503;-56
2022/08/13 05:41:23;;;;;;;;;28.75;25.75;;;;;26.40;53.42;98764.09;6233100;28;97581;-57
2022/08/13 05:44:32;;;;;;;;;39.20;34.00;;;;;26.41;53.58;98765.72;6225581;27;97383;-58
2022/08/13 05:47:37;;;;;;;;;28.40;27.00;;;;;26.43;53.70;98770.91;6265762;27;96469;-54
2022/08/13 05:50:43;;;;;;;;;31.00;28.40;;;;;26.41;54.00;98770.44;6255269;27;97407;-56
2022/08/13 05:53:53;;;;;;;;;40.60;34.40;;;;;26.40;53.96;98768.78;6243699;27;97381;-60
2022/08/13 05:57:16;;;;;;;;;29.00;26.00;;;;;26.29;53.57;98763.59;6236650;28;97224;-58
2022/08/13 06:03:41;;;;;;;;;32.50;30.00;;;;;26.39;53.98;98770.75;6238312;27;97634;-56
2022/08/13 06:07:06;;;;;;;;;39.00;33.00;;;;;26.40;53.96;98766.84;6243402;27;97029;-58
2022/08/13 06:10:12;;;;;;;;;29.20;26.20;;;;;26.39;53.87;98764.44;6232483;28;97589;-56
2022/08/13 06:13:17;;;;;;;;;36.00;31.00;;;;;26.37;54.10;98764.75;6214042;28;97381;-58
2022/08/13 06:16:30;;;;;;;;;31.80;28.60;;;;;26.35;54.20;98761.50;6215225;28;97724;-56
2022/08/13 06:19:52;;;;;;;;;31.00;28.25;;;;;26.35;54.38;98768.97;6215387;27;97488;-56
2022/08/13 06:22:58;;;;;;;;;29.75;25.50;;;;;26.34;54.63;98759.06;6262973;27;97002;-53
2022/08/13 06:26:06;;;;;;;;;35.40;31.00;;;;;26.33;54.74;98760.22;6261795;27;97567;-54
2022/08/13 06:29:18;;;;;;;;;38.50;32.00;;;;;26.30;55.07;98756.13;6262554;27;97148;-59
2022/08/13 06:32:22;;;;;;;;;35.40;32.40;;;;;26.29;55.07;98755.31;6239947;27;98327;-60
2022/08/13 06:35:38;;;;;;;;;33.40;30.00;;;;;26.29;54.98;98755.31;6238574;28;97497;-55
2022/08/13 06:38:51;;;;;;;;;30.80;28.00;;;;;26.30;55.15;98762.47;6239576;28;98027;-56
2022/08/13 06:41:59;;;;;;;;;31.40;30.00;;;;;26.28;55.11;98742.66;6240738;27;97440;-57
2022/08/13 06:45:07;;;;;;;;;41.00;35.00;;;;;26.31;55.18;98755.00;6255053;27;97481;-54
2022/08/13 06:48:10;;;;;;;;;30.00;28.00;;;;;26.31;55.04;98749.47;6238192;27;98194;-56
2022/08/13 06:51:20;;;;;;;;;34.20;29.80;;;;;26.31;55.13;98749.47;6238966;28;96942;-62
2022/08/13 06:54:24;;;;;;;;;27.75;24.50;;;;;26.32;55.25;98748.34;6218683;27;98283;-60
2022/08/13 06:57:37;;;;;;;;;35.40;30.40;;;;;26.34;55.45;98746.03;6216454;28;96870;-60
2022/08/13 07:01:00;;;;;;;;;29.60;27.00;;;;;26.38;55.18;98755.31;6211304;28;97840;-56
2022/08/13 07:04:10;;;;;;;;;50.00;40.75;;;;;26.42;55.43;98752.72;6256744;27;97207;-57
2022/08/13 07:07:32;;;;;;;;;37.40;33.00;;;;;26.44;55.57;98756.75;6227641;28;98641;-55
2022/08/13 07:10:40;;;;;;;;;31.00;27.00;;;;;26.45;55.67;98758.38;6212618;28;96878;-57
2022/08/13 07:13:47;;;;;;;;;30.00;28.40;;;;;26.45;55.30;98752.03;6213351;28;97616;-63
2022/08/13 07:16:52;;;;;;;;;26.00;25.00;;;;;26.43;55.35;98757.09;6214442;28;96570;-56
2022/08/13 07:19:57;;;;;;;;;37.75;31.75;;;;;26.46;55.43;98756.44;6213171;28;96573;-56
2022/08/13 07:23:08;;;;;;;;;45.60;38.60;;;;;26.50;55.23;98760.97;6233647;27;97076;-59
2022/08/13 07:26:33;;;;;;;;;35.25;32.00;;;;;26.56;55.22;98756.09;6262113;27;97606;-56
2022/08/13 07:29:49;;;;;;;;;31.50;29.50;;;;;26.56;54.92;98756.91;6240258;27;97424;-56
2022/08/13 07:32:57;;;;;;;;;29.40;27.80;;;;;26.58;55.13;98756.56;6211182;28;96913;-54
2022/08/13 07:36:04;;;;;;;;;35.75;32.00;;;;;26.57;55.23;98758.53;6252550;27;96879;-57
2022/08/13 07:39:13;;;;;;;;;34.00;31.00;;;;;26.60;55.62;98763.38;6246860;27;97459;-56
2022/08/13 07:42:21;;;;;;;;;41.00;35.50;;;;;26.60;55.58;98762.56;6237387;28;97080;-59
2022/08/13 07:45:35;;;;;;;;;33.00;30.25;;;;;26.63;55.29;98767.47;6237806;27;96969;-57
2022/08/13 07:48:59;;;;;;;;;38.80;34.40;;;;;26.61;55.86;98758.66;6226170;27;97341;-56
2022/08/13 07:52:09;;;;;;;;;26.20;23.80;;;;;26.66;56.12;98764.84;6237957;27;97100;-56
2022/08/13 07:55:13;;;;;;;;;31.40;29.00;;;;;26.67;55.79;98760.94;6243822;27;97051;-59
2022/08/13 07:58:37;;;;;;;;;32.80;30.00;;;;;26.69;56.17;98763.34;6242790;27;97451;-56
2022/08/13 08:01:46;;;;;;;;;42.50;35.50;;;;;26.69;56.13;98761.41;6236765;27;96675;-57
2022/08/13 08:05:12;;;;;;;;;34.00;31.00;;;;;26.69;56.01;98757.81;6236889;28;97060;-59
2022/08/13 08:08:16;;;;;;;;;34.25;30.00;;;;;26.56;55.94;98731.19;6211894;28;96846;-58
2022/08/13 08:14:53;;;;;;;;;25.75;23.75;;;;;26.74;56.19;98757.63;6218289;28;97170;-59
2022/08/13 08:18:00;;;;;;;;;29.00;27.00;;;;;26.73;56.15;98756.03;6235850;28;98117;-57
2022/08/13 08:21:24;;;;;;;;;32.40;30.40;;;;;26.75;56.37;98748.22;6238734;27;97531;-55
2022/08/13 08:24:50;;;;;;;;;24.00;22.50;;;;;26.81;55.73;98741.34;6241176;27;96645;-60
2022/08/13 08:27:56;;;;;;;;;30.50;27.25;;;;;26.88;56.03;98738.13;6236564;28;96808;-55
2022/08/13 08:31:21;;;;;;;;;28.20;27.00;;;;;26.94;55.34;98736.75;6237025;27;96614;-59
2022/08/13 08:34:49;;;;;;;;;20.20;19.80;;;;;27.03;55.33;98735.56;6237201;27;96879;-59
2022/08/13 08:44:58;;;;;;;;;28.40;27.00;;;;;27.24;54.65;98732.06;6227126;27;97221;-61
2022/08/13 08:48:03;;;;;;;;;25.50;22.00;;;;;27.25;53.87;98736.44;6239218;28;96933;-58
2022/08/13 08:51:09;;;;;;;;;22.80;22.00;;;;;27.28;53.81;98736.56;6237136;28;97912;-61
2022/08/13 08:54:25;;;;;;;;;21.00;19.00;;;;;27.35;54.01;98728.56;6232982;28;96885;-58
2022/08/13 08:57:36;;;;;;;;;24.80;23.80;;;;;27.42;55.14;98712.22;6240561;28;97557;-62
2022/08/13 09:00:41;;;;;;;;;20.60;19.60;;;;;27.67;53.51;98729.81;6239963;27;97394;-61
2022/08/13 09:03:46;;;;;;;;;19.40;19.00;;;;;27.88;54.49;98722.31;6256554;27;100426;-57
2022/08/13 09:07:02;;;;;;;;;18.40;16.80;;;;;28.24;53.85;98723.66;6240402;27;97045;-60
2022/08/13 09:10:09;;;;;;;;;17.80;15.40;;;;;28.54;53.91;98711.22;6226958;27;98214;-57
2022/08/13 09:13:19;;;;;;;;;20.40;19.00;;;;;28.78;52.31;98707.72;6246834;27;96715;-57
2022/08/13 09:16:25;;;;;;;;;22.00;20.50;;;;;28.95;51.61;98717.78;6260530;27;96683;-58
2022/08/13 09:19:29;;;;;;;;;24.40;22.40;;;;;29.05;50.50;98711.75;6259418;27;97130;-60
2022/08/13 09:23:04;;;;;;;;;22.75;21.75;;;;;29.17;50.20;98706.22;6242823;27;97517;-61
2022/08/13 09:26:29;;;;;;;;;32.50;31.25;;;;;29.28;49.64;98710.13;6221696;28;97004;-58
2022/08/13 09:29:32;;;;;;;;;24.00;22.60;;;;;29.35;49.09;98702.06;6236432;28;97457;-61
2022/08/13 09:32:39;;;;;;;;;21.00;21.00;;;;;29.41;49.46;98708.19;6237504;28;96865;-61
2022/08/13 09:35:44;;;;;;;;;18.00;17.00;;;;;29.51;49.87;98708.50;6239479;28;96921;-59
2022/08/13 09:38:50;;;;;;;;;20.60;20.00;;;;;29.46;48.96;98680.97;6239292;28;96961;-60
2022/08/13 09:41:54;;;;;;;;;17.75;16.00;;;;;29.73;48.18;98700.78;6238230;28;97418;-59
2022/08/13 09:44:59;;;;;;;;;19.00;18.00;;;;;29.82;47.96;98699.47;6239439;28;96959;-59
2022/08/13 09:48:07;;;;;;;;;21.00;20.40;;;;;29.84;47.15;98699.13;6234344;28;97451;-60
2022/08/13 09:51:31;;;;;;;;;19.00;17.00;;;;;29.79;47.16;98700.19;6238454;28;97296;-56
2022/08/13 09:54:57;;;;;;;;;22.40;21.80;;;;;29.67;47.64;98697.44;6239936;28;96929;-60
2022/08/13 09:58:01;;;;;;;;;20.80;20.60;;;;;29.62;48.33;98690.16;6236053;28;96718;-59
2022/08/13 10:01:05;;;;;;;;;21.20;20.20;;;;;29.52;47.66;98668.44;6240380;27;96674;-60
2022/08/13 10:04:22;;;;;;;;;23.60;23.00;;;;;29.71;47.33;98692.81;6240465;27;97397;-60
2022/08/13 10:07:26;;;;;;;;;19.00;18.80;;;;;29.73;47.05;98690.50;6237730;28;98040;-56
2022/08/13 10:10:31;;;;;;;;;21.00;19.20;;;;;29.70;47.27;98677.31;6238594;27;97200;-60
2022/08/13 10:13:35;;;;;;;;;27.00;25.00;;;;;29.53;47.23;98656.16;6236860;28;96799;-59
2022/08/13 10:16:53;;;;;;;;;32.50;29.50;;;;;29.51;46.94;98672.41;6237322;28;97528;-58
2022/08/13 10:19:57;;;;;;;;;27.00;26.50;;;;;29.44;47.26;98674.13;6236527;28;97456;-59
2022/08/13 10:23:02;;;;;;;;;20.60;19.60;;;;;29.23;47.94;98672.28;6238389;28;97533;-57
2022/08/13 10:26:10;;;;;;;;;24.60;23.00;;;;;29.21;48.09;98671.03;6237999;27;96827;-58
2022/08/13 10:29:14;;;;;;;;;26.00;24.40;;;;;29.15;48.41;98666.88;6237843;27;97471;-57
2022/08/13 10:32:37;;;;;;;;;22.00;22.00;;;;;29.11;48.58;98671.50;6235910;28;97189;-58
2022/08/13 10:35:41;;;;;;;;;19.00;18.25;;;;;29.15;49.01;98667.69;6237009;27;96899;-57
2022/08/13 10:38:45;;;;;;;;;19.00;17.00;;;;;29.31;48.38;98659.50;6233472;28;96995;-57
2022/08/13 10:41:57;;;;;;;;;21.60;21.00;;;;;29.47;47.36;98663.13;6236373;28;97590;-57
2022/08/13 10:45:06;;;;;;;;;23.00;22.00;;;;;29.50;46.83;98656.88;6234417;28;97470;-56
2022/08/13 10:48:11;;;;;;;;;21.00;21.00;;;;;29.47;46.80;98651.22;6236093;27;97403;-57
2022/08/13 10:51:15;;;;;;;;;22.80;20.80;;;;;29.45;47.62;98653.53;6236832;27;96940;-57
2022/08/13 10:54:30;;;;;;;;;25.00;23.80;;;;;29.39;47.34;98649.38;6236769;28;96647;-56
2022/08/13 10:57:37;;;;;;;;;23.40;22.40;;;;;29.32;47.18;98640.88;6236500;27;97432;-58
2022/08/13 11:01:03;;;;;;;;;23.20;21.60;;;;;29.16;47.11;98643.53;6238807;27;97474;-59
2022/08/13 11:04:14;;;;;;;;;25.00;24.60;;;;;29.16;46.94;98649.06;6239895;28;97627;-61
2022/08/13 11:07:20;;;;;;;;;33.00;30.40;;;;;29.11;47.99;98646.53;6237270;28;98165;-59
2022/08/13 11:10:24;;;;;;;;;21.60;19.80;;;;;28.97;48.13;98618.34;6238281;28;97522;-56
2022/08/13 11:13:37;;;;;;;;;23.00;22.00;;;;;28.64;47.92;98571.28;6220582;27;97616;-55
2022/08/13 11:16:57;;;;;;;;;21.60;20.00;;;;;29.06;47.89;98650.34;6213482;28;96303;-58
2022/08/13 11:20:13;;;;;;;;;21.40;21.40;;;;;29.08;48.54;98638.88;6228794;28;96656;-57
2022/08/13 11:23:21;;;;;;;;;25.80;25.20;;;;;29.06;48.76;98644.00;6235113;28;97503;-58
2022/08/13 11:26:25;;;;;;;;;20.50;20.50;;;;;29.01;47.93;98644.22;6234354;28;98061;-55
2022/08/13 11:29:43;;;;;;;;;22.40;21.00;;;;;28.99;48.21;98647.34;6235409;28;97364;-61
2022/08/13 11:32:50;;;;;;;;;20.00;18.00;;;;;28.96;48.10;98641.69;6232457;28;97446;-56
2022/08/13 11:35:55;;;;;;;;;24.50;22.50;;;;;28.94;48.28;98647.59;6235332;28;97002;-56
2022/08/13 11:38:59;;;;;;;;;23.40;22.40;;;;;28.93;48.08;98645.19;6240393;27;97065;-62
2022/08/13 11:42:02;;;;;;;;;21.00;20.00;;;;;28.90;48.11;98649.44;6231794;28;96833;-60
2022/08/13 11:45:11;;;;;;;;;21.40;20.40;;;;;28.91;48.17;98648.28;6234307;28;96617;-59
2022/08/13 11:48:14;;;;;;;;;24.33;24.33;;;;;28.93;48.05;98645.19;6236079;27;96741;-60
2022/08/13 11:51:32;;;;;;;;;21.40;21.40;;;;;28.89;48.54;98653.38;6212412;28;97159;-57
2022/08/13 11:54:54;;;;;;;;;23.20;22.20;;;;;28.84;48.54;98651.63;6211033;28;96728;-61
2022/08/13 11:58:02;;;;;;;;;30.40;29.00;;;;;28.82;49.18;98642.06;6212315;28;97542;-59
2022/08/13 12:01:07;;;;;;;;;24.80;23.80;;;;;28.83;49.08;98652.78;6236177;28;97936;-55
2022/08/13 12:04:14;;;;;;;;;20.25;18.25;;;;;28.89;48.68;98647.81;6237013;28;97512;-55
2022/08/13 12:07:27;;;;;;;;;19.60;19.00;;;;;29.06;49.01;98636.47;6236872;27;96992;-59
2022/08/13 12:10:32;;;;;;;;;24.50;23.00;;;;;29.36;48.53;98628.69;6217866;28;97460;-60
2022/08/13 12:13:55;;;;;;;;;23.00;22.60;;;;;29.63;48.19;98625.13;6227611;28;97605;-58
2022/08/13 12:17:00;;;;;;;;;21.33;21.00;;;;;29.94;47.90;98623.63;6211675;28;97430;-59
2022/08/13 12:20:08;;;;;;;;;20.00;20.00;;;;;30.19;46.98;98624.28;6226139;28;97504;-59
2022/08/13 12:23:22;;;;;;;;;22.00;20.40;;;;;30.41;46.14;98621.69;6235750;28;96941;-54
2022/08/13 12:26:36;;;;;;;;;18.80;18.40;;;;;30.63;45.73;98611.13;6237119;28;98106;-58
2022/08/13 12:29:41;;;;;;;;;19.20;17.60;;;;;30.93;45.04;98612.25;6225752;27;96870;-59
2022/08/13 12:32:50;;;;;;;;;17.60;17.00;;;;;31.29;43.79;98613.88;6211806;28;97530;-57
2022/08/13 12:35:55;;;;;;;;;20.50;18.50;;;;;31.46;43.42;98618.22;6211735;28;97471;-59
2022/08/13 12:39:00;;;;;;;;;24.40;23.60;;;;;31.39;42.47;98597.38;6231125;28;97582;-59
2022/08/13 12:42:04;;;;;;;;;22.00;22.00;;;;;31.49;42.10;98612.72;6236233;28;97358;-58
2022/08/13 12:45:09;;;;;;;;;21.00;19.20;;;;;31.48;42.33;98619.44;6236419;27;98130;-60
2022/08/13 12:48:34;;;;;;;;;21.00;20.50;;;;;31.42;42.43;98613.34;6235950;27;98106;-60
2022/08/13 12:51:40;;;;;;;;;24.20;22.20;;;;;31.41;42.53;98610.94;6220591;28;97489;-58
2022/08/13 12:54:58;;;;;;;;;20.20;19.60;;;;;31.43;42.78;98603.03;6236494;28;96350;-59
2022/08/13 12:58:22;;;;;;;;;16.50;16.00;;;;;31.42;42.46;98605.00;6236607;28;97360;-62
2022/08/13 13:01:26;;;;;;;;;26.00;26.00;;;;;31.29;42.49;98597.16;6235942;28;97520;-61
2022/08/13 13:04:41;;;;;;;;;20.60;19.60;;;;;31.25;42.76;98594.28;6236098;27;98034;-57
2022/08/13 13:08:14;;;;;;;;;21.00;20.50;;;;;31.29;42.66;98597.16;6235927;28;97174;-56
2022/08/13 13:11:35;;;;;;;;;23.00;22.00;;;;;31.30;42.68;98587.63;6227035;28;96778;-53
2022/08/13 13:14:54;;;;;;;;;23.00;21.00;;;;;31.22;43.07;98589.47;6234575;28;97462;-57
2022/08/13 13:18:20;;;;;;;;;23.00;21.00;;;;;31.11;42.60;98591.22;6236078;28;97442;-57
2022/08/13 13:21:46;;;;;;;;;20.00;18.00;;;;;30.97;43.41;98590.88;6212021;28;96987;-59
2022/08/13 13:24:52;;;;;;;;;21.20;21.00;;;;;30.90;43.94;98591.50;6218772;28;96787;-59
2022/08/13 13:28:07;;;;;;;;;25.60;24.60;;;;;30.73;44.09;98583.56;6242410;27;96802;-61
2022/08/13 13:31:10;;;;;;;;;25.00;23.40;;;;;30.62;44.91;98581.69;6224210;27;97387;-55
2022/08/13 13:34:19;;;;;;;;;24.00;22.00;;;;;30.48;45.95;98587.72;6236592;27;98003;-58
2022/08/13 13:37:27;;;;;;;;;24.00;22.40;;;;;30.21;47.20;98591.34;6237877;27;97576;-57
2022/08/13 13:40:52;;;;;;;;;22.20;20.40;;;;;30.08;47.99;98597.00;6242259;27;97054;-56
2022/08/13 13:43:56;;;;;;;;;23.75;20.75;;;;;29.98;49.27;98591.16;6238245;28;97755;-60
2022/08/13 13:47:08;;;;;;;;;24.50;22.50;;;;;29.85;49.27;98590.41;6243536;27;97379;-59
2022/08/13 13:50:13;;;;;;;;;21.80;21.40;;;;;29.71;49.48;98603.91;6237087;27;97590;-62
2022/08/13 13:53:33;;;;;;;;;21.00;20.00;;;;;29.63;49.44;98590.97;6239061;27;99187;-61
2022/08/13 13:56:56;;;;;;;;;20.00;20.00;;;;;29.62;49.85;98592.13;6264233;27;97141;-58
2022/08/13 14:00:00;;;;;;;;;21.80;18.60;;;;;29.54;50.38;98587.53;6253260;27;97240;-60
2022/08/13 14:03:10;;;;;;;;;22.00;21.00;;;;;29.42;50.15;98576.50;6239933;28;97738;-61
2022/08/13 14:06:26;;;;;;;;;24.80;22.80;;;;;29.35;50.90;98581.84;6258322;27;98098;-58
2022/08/13 14:09:33;;;;;;;;;24.40;24.00;;;;;29.18;51.15;98566.22;6257901;27;97035;-62
2022/08/13 14:12:41;;;;;;;;;22.80;21.80;;;;;29.23;51.24;98580.66;6238591;27;96965;-59
2022/08/13 14:16:09;;;;;;;;;29.00;28.00;;;;;29.16;51.71;98574.94;6238729;27;97460;-58
2022/08/13 14:19:19;;;;;;;;;25.40;24.40;;;;;29.21;52.16;98579.41;6238127;28;96492;-59
2022/08/13 14:22:43;;;;;;;;;21.00;21.00;;;;;29.20;52.56;98561.94;6239448;28;97136;-57
2022/08/13 14:25:50;;;;;;;;;26.00;25.00;;;;;29.36;52.82;98577.91;6238774;28;97402;-59
2022/08/13 14:28:58;;;;;;;;;20.60;20.60;;;;;29.51;52.40;98585.47;6237844;27;97023;-56
2022/08/13 14:32:04;;;;;;;;;24.75;22.75;;;;;29.64;52.58;98576.72;6215515;28;97115;-60
2022/08/13 14:35:10;;;;;;;;;24.00;22.00;;;;;29.76;51.45;98578.66;6238691;27;97561;-60
2022/08/13 14:38:18;;;;;;;;;21.00;19.40;;;;;29.81;51.53;98572.81;6236356;27;97732;-59
2022/08/13 14:41:36;;;;;;;;;37.60;34.00;;;;;29.82;51.75;98568.88;6243767;27;96672;-61
2022/08/13 14:45:39;;;;;;;;;28.20;26.80;;;;;29.86;51.55;98561.44;6257349;27;97516;-61
2022/08/13 14:48:14;;;;;;;;;26.00;24.00;;;;;29.93;51.29;98563.63;6234562;27;96895;-58
2022/08/13 14:51:18;;;;;;;;;31.80;29.80;;;;;29.97;51.54;98572.88;6248414;27;97733;-52
2022/08/13 14:54:24;;;;;;;;;49.20;41.00;;;;;29.99;51.12;98562.22;6263709;27;96983;-58
2022/08/13 14:57:35;;;;;;;;;31.50;29.25;;;;;29.99;50.63;98570.53;6245328;27;97240;-59
2022/08/13 15:00:49;;;;;;;;;28.00;27.00;;;;;30.01;51.22;98573.75;6221206;27;97866;-57
2022/08/13 15:03:52;;;;;;;;;47.60;39.80;;;;;30.01;50.94;98566.22;6252971;27;97364;-56